Time;durP1;ratioP1;P1;durP2;ratioP2;P2;SDS_P1;SDS_P2;PMS_P1;PMS_P2;Temp;Humidity;BMP_temperature;BMP_pressure;BME280_temperature;BME280_humidity;BME280_pressure;Samples;Min_cycle;Max_cycle;Signal;HPM_P1;HPM_P2
2024/03/02 00:02:01;;;;;;;;;;;10.30;88.70;;;;;;5015415;28;86997;-49
2024/03/02 00:04:26;;;;;;;;;;;10.30;88.80;;;;;;5015718;28;86950;-49
2024/03/02 00:06:54;;;;;;;;;;;10.30;88.70;;;;;;5018069;28;87007;-49
2024/03/02 00:09:20;;;;;;;;;;;10.30;88.80;;;;;;5015348;28;87469;-50
2024/03/02 00:11:46;;;;;;;;;;;10.30;88.80;;;;;;5010507;28;86826;-49
2024/03/02 00:14:12;;;;;;;;;;;10.30;88.80;;;;;;5015819;28;87490;-51
2024/03/02 00:16:37;;;;;;;;;;;10.30;88.80;;;;;;5014524;28;87451;-47
2024/03/02 00:19:05;;;;;;;;;;;10.30;88.80;;;;;;5011601;28;87902;-49
2024/03/02 00:21:31;;;;;;;;;;;10.30;88.90;;;;;;5012155;28;88671;-51
2024/03/02 00:23:57;;;;;;;;;;;10.20;88.80;;;;;;5013343;28;87011;-49
2024/03/02 00:26:22;;;;;;;;;;;10.30;88.80;;;;;;5021553;28;87249;-51
2024/03/02 00:28:50;;;;;;;;;;;10.30;88.80;;;;;;5014980;28;86973;-49
2024/03/02 00:31:18;;;;;;;;;;;10.30;88.90;;;;;;5013338;28;87946;-49
2024/03/02 00:33:44;;;;;;;;;;;10.20;88.80;;;;;;5014076;28;88647;-49
2024/03/02 00:36:11;;;;;;;;;;;10.20;88.80;;;;;;5011965;28;86440;-50
2024/03/02 00:38:47;;;;;;;;;;;10.20;88.90;;;;;;5014089;28;86972;-50
2024/03/02 00:41:25;;;;;;;;;;;10.20;88.90;;;;;;5011978;28;88547;-50
2024/03/02 00:44:00;;;;;;;;;;;10.20;88.90;;;;;;5011902;28;87989;-49
2024/03/02 00:46:27;;;;;;;;;;;10.20;88.90;;;;;;5013111;28;88949;-49
2024/03/02 00:48:54;;;;;;;;;;;10.20;89.00;;;;;;5014502;28;88435;-50
2024/03/02 00:51:20;;;;;;;;;;;10.20;89.00;;;;;;5014133;28;88226;-51
2024/03/02 00:53:45;;;;;;;;;;;10.20;88.90;;;;;;5012727;28;86992;-50
2024/03/02 00:56:11;;;;;;;;;;;10.20;89.00;;;;;;5011196;28;86953;-50
2024/03/02 00:58:38;;;;;;;;;;;10.20;89.00;;;;;;5004996;28;86998;-49
2024/03/02 01:01:03;;;;;;;;;;;10.10;88.90;;;;;;5011326;28;87286;-49
2024/03/02 01:03:29;;;;;;;;;;;10.10;89.00;;;;;;5013493;28;87009;-48
2024/03/02 01:05:55;;;;;;;;;;;10.10;89.00;;;;;;5018050;28;87730;-50
2024/03/02 01:08:20;;;;;;;;;;;10.20;89.10;;;;;;5017113;28;88498;-50
2024/03/02 01:10:46;;;;;;;;;;;10.20;89.10;;;;;;5017678;28;86998;-49
2024/03/02 01:13:11;;;;;;;;;;;10.10;89.00;;;;;;5012408;28;87495;-50
2024/03/02 01:15:37;;;;;;;;;;;10.10;89.00;;;;;;5016335;28;86978;-50
2024/03/02 01:18:02;;;;;;;;;;;10.10;89.10;;;;;;5018210;28;87365;-49
2024/03/02 01:20:28;;;;;;;;;;;10.10;89.00;;;;;;5016768;28;87649;-49
2024/03/02 01:22:54;;;;;;;;;;;10.10;89.00;;;;;;5012435;28;87041;-50
2024/03/02 01:25:19;;;;;;;;;;;10.10;89.00;;;;;;5016868;28;87857;-50
2024/03/02 01:27:45;;;;;;;;;;;10.10;89.10;;;;;;5012851;28;88530;-50
2024/03/02 01:30:11;;;;;;;;;;;10.10;89.20;;;;;;5016746;28;87042;-49
2024/03/02 01:32:39;;;;;;;;;;;10.10;89.10;;;;;;5018328;28;88260;-49
2024/03/02 01:35:05;;;;;;;;;;;10.10;89.10;;;;;;5016351;28;86997;-48
2024/03/02 01:37:31;;;;;;;;;;;10.10;89.10;;;;;;5016132;28;88106;-49
2024/03/02 01:39:56;;;;;;;;;;;10.10;89.20;;;;;;5016335;28;87602;-49
2024/03/02 01:42:22;;;;;;;;;;;10.10;89.20;;;;;;5015752;28;86908;-50
2024/03/02 01:44:48;;;;;;;;;;;10.10;89.20;;;;;;5016301;28;87301;-50
2024/03/02 01:47:13;;;;;;;;;;;10.00;89.20;;;;;;5017785;28;87570;-50
2024/03/02 01:49:40;;;;;;;;;;;10.00;89.10;;;;;;5019559;28;86559;-49
2024/03/02 01:52:06;;;;;;;;;;;10.00;89.10;;;;;;5013462;28;87110;-50
2024/03/02 01:54:32;;;;;;;;;;;10.00;89.10;;;;;;5019707;28;88832;-53
2024/03/02 01:56:58;;;;;;;;;;;10.00;89.20;;;;;;5012671;28;88021;-52
2024/03/02 01:59:23;;;;;;;;;;;10.00;89.20;;;;;;5018184;28;87571;-50
2024/03/02 02:01:49;;;;;;;;;;;10.00;89.30;;;;;;5011099;28;87804;-51
2024/03/02 02:04:15;;;;;;;;;;;10.00;89.30;;;;;;5013212;28;87847;-51
2024/03/02 02:06:40;;;;;;;;;;;10.00;89.30;;;;;;5012349;28;87535;-50
2024/03/02 02:09:08;;;;;;;;;;;10.00;89.30;;;;;;5014393;28;87020;-49
2024/03/02 02:11:34;;;;;;;;;;;10.00;89.30;;;;;;5012948;28;87922;-49
2024/03/02 02:13:59;;;;;;;;;;;10.00;89.30;;;;;;5016165;28;86860;-49
2024/03/02 02:16:25;;;;;;;;;;;10.00;89.30;;;;;;5016739;28;87467;-49
2024/03/02 02:18:51;;;;;;;;;;;10.00;89.30;;;;;;5016291;28;86905;-50
2024/03/02 02:21:16;;;;;;;;;;;10.00;89.30;;;;;;5016638;28;87950;-49
2024/03/02 02:23:46;;;;;;;;;;;10.00;89.30;;;;;;5013917;28;87757;-51
2024/03/02 02:26:12;;;;;;;;;;;9.90;89.30;;;;;;5012908;28;88509;-48
2024/03/02 02:28:37;;;;;;;;;;;9.90;89.40;;;;;;5015980;28;87063;-51
2024/03/02 02:31:03;;;;;;;;;;;10.00;89.30;;;;;;5009039;28;87873;-50
2024/03/02 02:33:28;;;;;;;;;;;10.00;89.40;;;;;;5013472;28;88578;-51
2024/03/02 02:35:54;;;;;;;;;;;9.90;89.40;;;;;;5012674;28;87411;-50
2024/03/02 02:38:20;;;;;;;;;;;9.90;89.40;;;;;;5017825;28;87705;-49
2024/03/02 02:40:45;;;;;;;;;;;9.90;89.30;;;;;;5014704;28;86919;-50
2024/03/02 02:43:11;;;;;;;;;;;10.00;89.40;;;;;;5016308;28;87001;-51
2024/03/02 02:45:37;;;;;;;;;;;9.90;89.40;;;;;;5012422;28;87991;-53
2024/03/02 02:48:03;;;;;;;;;;;9.90;89.40;;;;;;5016009;28;87073;-50
2024/03/02 02:50:28;;;;;;;;;;;9.90;89.40;;;;;;5013425;28;86885;-50
2024/03/02 02:52:54;;;;;;;;;;;9.90;89.40;;;;;;5014685;28;87414;-49
2024/03/02 02:55:19;;;;;;;;;;;9.90;89.40;;;;;;5013451;28;87803;-48
2024/03/02 02:57:46;;;;;;;;;;;9.90;89.40;;;;;;5015381;28;89623;-49
2024/03/02 03:00:17;;;;;;;;;;;9.90;89.40;;;;;;5017591;28;87002;-50
2024/03/02 03:02:43;;;;;;;;;;;9.90;89.40;;;;;;5020407;28;89553;-49
2024/03/02 03:05:09;;;;;;;;;;;9.90;89.40;;;;;;5017370;28;88580;-49
2024/03/02 03:07:36;;;;;;;;;;;9.90;89.60;;;;;;5014905;28;87110;-49
2024/03/02 03:10:03;;;;;;;;;;;9.90;89.50;;;;;;5012432;28;87994;-49
2024/03/02 03:12:28;;;;;;;;;;;9.90;89.50;;;;;;5012160;28;88604;-49
2024/03/02 03:14:54;;;;;;;;;;;9.90;89.50;;;;;;5015492;28;87301;-49
2024/03/02 03:17:21;;;;;;;;;;;9.80;89.40;;;;;;5017683;28;86983;-51
2024/03/02 03:19:46;;;;;;;;;;;9.80;89.50;;;;;;5018421;28;87639;-50
2024/03/02 03:22:13;;;;;;;;;;;9.80;89.60;;;;;;5012116;28;87005;-50
2024/03/02 03:24:39;;;;;;;;;;;9.80;89.50;;;;;;5018602;28;86947;-51
2024/03/02 03:27:04;;;;;;;;;;;9.90;89.60;;;;;;5015682;28;86236;-49
2024/03/02 03:29:30;;;;;;;;;;;9.80;89.50;;;;;;5013245;28;87556;-48
2024/03/02 03:31:55;;;;;;;;;;;9.80;89.60;;;;;;5015363;28;87400;-50
2024/03/02 03:34:21;;;;;;;;;;;9.80;89.60;;;;;;5009912;28;88071;-49
2024/03/02 03:36:46;;;;;;;;;;;9.80;89.70;;;;;;5011963;28;88276;-49
2024/03/02 03:39:12;;;;;;;;;;;9.80;89.80;;;;;;5013135;28;87972;-49
2024/03/02 03:41:37;;;;;;;;;;;9.80;89.70;;;;;;5016486;28;87034;-49
2024/03/02 03:44:03;;;;;;;;;;;9.80;89.60;;;;;;5012219;28;87659;-49
2024/03/02 03:46:29;;;;;;;;;;;9.80;89.50;;;;;;5011846;28;87146;-49
2024/03/02 03:48:55;;;;;;;;;;;9.80;89.70;;;;;;5014096;28;88178;-50
2024/03/02 03:51:22;;;;;;;;;;;9.80;89.60;;;;;;5010196;28;87974;-47
2024/03/02 03:53:48;;;;;;;;;;;9.80;89.80;;;;;;5008824;28;86997;-50
2024/03/02 03:56:14;;;;;;;;;;;9.80;89.70;;;;;;5013410;28;86913;-48
2024/03/02 03:58:39;;;;;;;;;;;9.80;89.70;;;;;;5011347;28;89460;-49
2024/03/02 04:01:05;;;;;;;;;;;9.80;89.80;;;;;;5012803;28;87656;-50
2024/03/02 04:03:30;;;;;;;;;;;9.70;89.60;;;;;;5017191;28;87950;-49
2024/03/02 04:05:56;;;;;;;;;;;9.70;89.70;;;;;;5014421;28;87752;-50
2024/03/02 04:08:21;;;;;;;;;;;9.70;89.80;;;;;;5015351;28;87662;-49
2024/03/02 04:10:47;;;;;;;;;;;9.70;89.80;;;;;;5012444;28;87515;-52
2024/03/02 04:13:12;;;;;;;;;;;9.70;89.80;;;;;;5015494;28;87035;-49
2024/03/02 04:15:40;;;;;;;;;;;9.70;89.90;;;;;;5012258;28;86946;-50
2024/03/02 04:18:06;;;;;;;;;;;9.70;90.20;;;;;;5013541;28;87915;-47
2024/03/02 04:20:31;;;;;;;;;;;9.70;90.00;;;;;;5012598;28;86964;-49
2024/03/02 04:22:57;;;;;;;;;;;9.70;89.80;;;;;;5011353;28;89527;-50
2024/03/02 04:25:23;;;;;;;;;;;9.70;89.90;;;;;;5018700;28;88711;-48
2024/03/02 04:27:48;;;;;;;;;;;9.70;90.00;;;;;;5018132;28;87251;-50
2024/03/02 04:30:14;;;;;;;;;;;9.70;89.90;;;;;;5015609;28;87414;-48
2024/03/02 04:32:40;;;;;;;;;;;9.70;89.90;;;;;;5012514;28;87237;-50
2024/03/02 04:35:08;;;;;;;;;;;9.70;90.00;;;;;;5014812;28;87756;-49
2024/03/02 04:37:34;;;;;;;;;;;9.70;90.20;;;;;;5010135;28;88743;-49
2024/03/02 04:40:00;;;;;;;;;;;9.70;90.00;;;;;;5014215;28;86277;-49
2024/03/02 04:42:25;;;;;;;;;;;9.70;90.00;;;;;;5022207;28;87408;-50
2024/03/02 04:44:51;;;;;;;;;;;9.70;90.00;;;;;;5019855;28;87465;-49
2024/03/02 04:47:16;;;;;;;;;;;9.60;90.00;;;;;;5016155;28;87872;-49
2024/03/02 04:49:43;;;;;;;;;;;9.60;90.00;;;;;;5016334;28;88000;-49
2024/03/02 04:52:08;;;;;;;;;;;9.70;90.00;;;;;;5019004;28;87043;-50
2024/03/02 04:55:09;;;;;;;;;;;9.70;90.00;;;;;;5017988;28;86949;-50
2024/03/02 04:57:19;;;;;;;;;;;9.60;90.00;;;;;;5012100;28;87506;-51
2024/03/02 04:59:45;;;;;;;;;;;9.60;90.00;;;;;;5014514;28;87060;-49
2024/03/02 05:02:12;;;;;;;;;;;9.60;90.00;;;;;;5015951;28;87316;-50
2024/03/02 05:04:37;;;;;;;;;;;9.60;90.00;;;;;;5015240;28;87392;-52
2024/03/02 05:07:03;;;;;;;;;;;9.60;90.00;;;;;;5019430;28;87012;-50
2024/03/02 05:09:28;;;;;;;;;;;9.60;90.00;;;;;;5014186;28;87482;-50
2024/03/02 05:14:38;;;;;;;;;;;9.60;90.00;;;;;;5016644;28;87199;-50
2024/03/02 05:17:04;;;;;;;;;;;9.60;90.00;;;;;;5017966;28;87425;-50
2024/03/02 05:19:29;;;;;;;;;;;9.60;90.00;;;;;;5019121;28;87164;-51
2024/03/02 05:21:55;;;;;;;;;;;9.60;90.00;;;;;;5010089;28;88106;-50
2024/03/02 05:24:20;;;;;;;;;;;9.60;90.00;;;;;;5013010;28;87751;-50
2024/03/02 05:26:46;;;;;;;;;;;9.60;90.00;;;;;;5015085;28;88714;-50
2024/03/02 05:29:12;;;;;;;;;;;9.60;90.00;;;;;;5019434;28;87849;-51
2024/03/02 05:31:37;;;;;;;;;;;9.60;90.00;;;;;;5015996;28;87035;-50
2024/03/02 05:34:03;;;;;;;;;;;9.50;90.00;;;;;;5015515;28;87619;-51
2024/03/02 05:36:29;;;;;;;;;;;9.60;90.10;;;;;;5014191;28;88466;-50
2024/03/02 05:38:54;;;;;;;;;;;9.50;90.10;;;;;;5016121;28;87004;-50
2024/03/02 05:41:20;;;;;;;;;;;9.60;90.10;;;;;;5013967;28;87857;-50
2024/03/02 05:43:46;;;;;;;;;;;9.50;90.10;;;;;;5017679;28;87837;-50
2024/03/02 05:46:11;;;;;;;;;;;9.60;90.00;;;;;;5011002;28;87837;-49
2024/03/02 05:48:37;;;;;;;;;;;9.50;90.10;;;;;;5014295;28;87686;-50
2024/03/02 05:51:03;;;;;;;;;;;9.50;90.10;;;;;;5018413;28;87693;-50
2024/03/02 05:53:28;;;;;;;;;;;9.50;90.10;;;;;;5015303;28;86506;-49
2024/03/02 05:55:55;;;;;;;;;;;9.50;90.10;;;;;;5011770;28;88584;-50
2024/03/02 06:00:50;;;;;;;;;;;9.50;90.10;;;;;;5013646;28;88017;-49
2024/03/02 06:03:15;;;;;;;;;;;9.50;90.10;;;;;;5012813;28;88704;-50
2024/03/02 06:05:41;;;;;;;;;;;9.50;90.10;;;;;;5013798;28;88028;-49
2024/03/02 06:08:07;;;;;;;;;;;9.50;90.10;;;;;;5014310;28;87447;-48
2024/03/02 06:10:33;;;;;;;;;;;9.50;90.10;;;;;;5023449;28;88631;-50
2024/03/02 06:12:59;;;;;;;;;;;9.50;90.10;;;;;;5016169;28;86915;-52
2024/03/02 06:15:24;;;;;;;;;;;9.50;90.10;;;;;;5014123;28;87662;-50
2024/03/02 06:17:50;;;;;;;;;;;9.50;90.10;;;;;;5017674;28;87819;-51
2024/03/02 06:20:15;;;;;;;;;;;9.50;90.10;;;;;;5014694;28;87254;-50
2024/03/02 06:22:41;;;;;;;;;;;9.50;90.10;;;;;;5018242;28;88855;-52
2024/03/02 06:25:07;;;;;;;;;;;9.50;90.10;;;;;;5013401;28;88379;-49
2024/03/02 06:27:32;;;;;;;;;;;9.50;90.10;;;;;;5013412;28;88064;-51
2024/03/02 06:29:58;;;;;;;;;;;9.50;90.00;;;;;;5014249;28;86928;-52
2024/03/02 06:32:25;;;;;;;;;;;9.50;90.10;;;;;;5014549;28;87225;-51
2024/03/02 06:34:50;;;;;;;;;;;9.50;90.10;;;;;;5014237;28;87030;-51
2024/03/02 06:37:16;;;;;;;;;;;9.50;90.10;;;;;;5010289;28;87111;-50
2024/03/02 06:39:41;;;;;;;;;;;9.50;90.00;;;;;;5011927;28;88020;-52
2024/03/02 06:42:07;;;;;;;;;;;9.50;90.10;;;;;;5012083;28;87018;-48
2024/03/02 06:44:33;;;;;;;;;;;9.50;90.00;;;;;;5012844;28;87632;-52
2024/03/02 06:46:59;;;;;;;;;;;9.50;90.00;;;;;;5015016;28;86996;-51
2024/03/02 06:49:24;;;;;;;;;;;9.50;90.10;;;;;;5011851;28;88258;-50
2024/03/02 06:51:50;;;;;;;;;;;9.40;90.10;;;;;;5013514;28;87930;-50
2024/03/02 06:54:16;;;;;;;;;;;9.40;90.10;;;;;;5011741;28;88847;-50
2024/03/02 06:56:41;;;;;;;;;;;9.40;90.10;;;;;;5011471;28;87362;-51
2024/03/02 06:59:07;;;;;;;;;;;9.50;90.10;;;;;;5013779;28;87215;-49
2024/03/02 07:01:32;;;;;;;;;;;9.40;90.10;;;;;;5013762;28;88772;-49
2024/03/02 07:03:58;;;;;;;;;;;9.50;90.10;;;;;;5009507;28;87146;-50
2024/03/02 07:06:23;;;;;;;;;;;9.50;90.10;;;;;;5014570;28;86277;-49
2024/03/02 07:08:49;;;;;;;;;;;9.50;90.10;;;;;;5014877;28;87701;-51
2024/03/02 07:11:15;;;;;;;;;;;9.50;90.10;;;;;;5012595;28;87116;-50
2024/03/02 07:13:40;;;;;;;;;;;9.50;90.10;;;;;;5016130;28;88161;-50
2024/03/02 07:16:24;;;;;;;;;;;9.50;90.00;;;;;;5023515;28;87464;-49
2024/03/02 07:18:51;;;;;;;;;;;9.50;90.00;;;;;;5010685;28;88034;-50
2024/03/02 07:21:17;;;;;;;;;;;9.50;90.00;;;;;;5013298;28;87926;-50
2024/03/02 07:23:43;;;;;;;;;;;9.50;90.10;;;;;;5014613;28;87021;-50
2024/03/02 07:26:08;;;;;;;;;;;9.50;90.10;;;;;;5014651;28;86994;-50
2024/03/02 07:28:34;;;;;;;;;;;9.40;90.10;;;;;;5014408;28;86965;-50
2024/03/02 07:31:04;;;;;;;;;;;9.50;90.10;;;;;;5013216;28;87495;-50
2024/03/02 07:33:30;;;;;;;;;;;9.50;90.00;;;;;;5010416;28;87329;-49
2024/03/02 07:35:55;;;;;;;;;;;9.40;90.10;;;;;;5010155;28;87834;-49
2024/03/02 07:38:21;;;;;;;;;;;9.40;90.10;;;;;;5011975;28;87994;-50
2024/03/02 07:40:50;;;;;;;;;;;9.40;90.20;;;;;;5009457;28;87329;-49
2024/03/02 07:43:19;;;;;;;;;;;9.40;90.10;;;;;;5013766;28;87003;-50
2024/03/02 07:45:45;;;;;;;;;;;9.40;90.10;;;;;;5011585;28;87139;-50
2024/03/02 07:48:11;;;;;;;;;;;9.40;90.00;;;;;;5012805;28;87761;-50
2024/03/02 07:50:37;;;;;;;;;;;9.40;90.00;;;;;;5010881;28;87312;-49
2024/03/02 07:53:03;;;;;;;;;;;9.40;90.10;;;;;;5013305;28;87086;-51
2024/03/02 07:55:29;;;;;;;;;;;9.40;90.10;;;;;;5014317;28;87733;-50
2024/03/02 07:57:55;;;;;;;;;;;9.40;90.10;;;;;;5012000;28;87066;-49
2024/03/02 08:00:20;;;;;;;;;;;9.40;90.10;;;;;;5015002;28;87850;-50
2024/03/02 08:02:46;;;;;;;;;;;9.40;90.10;;;;;;5011566;28;88325;-49
2024/03/02 08:05:12;;;;;;;;;;;9.40;90.10;;;;;;5011765;28;87766;-50
2024/03/02 08:07:37;;;;;;;;;;;9.40;90.20;;;;;;5009959;28;87610;-49
2024/03/02 08:10:03;;;;;;;;;;;9.40;90.20;;;;;;5012641;28;87041;-49
2024/03/02 08:12:28;;;;;;;;;;;9.40;90.20;;;;;;5008747;28;87728;-50
2024/03/02 08:14:54;;;;;;;;;;;9.40;90.20;;;;;;5012056;28;87794;-50
2024/03/02 08:17:19;;;;;;;;;;;9.40;90.10;;;;;;5015388;28;87240;-48
2024/03/02 08:19:46;;;;;;;;;;;9.40;90.10;;;;;;5011777;28;86566;-49
2024/03/02 08:22:11;;;;;;;;;;;9.40;90.20;;;;;;5018754;28;88663;-49
2024/03/02 08:24:37;;;;;;;;;;;9.40;90.20;;;;;;5016134;28;87072;-50
2024/03/02 08:27:03;;;;;;;;;;;9.40;90.20;;;;;;5013067;28;88639;-50
2024/03/02 08:29:28;;;;;;;;;;;9.40;90.10;;;;;;5015036;28;87940;-52
2024/03/02 08:31:54;;;;;;;;;;;9.40;90.20;;;;;;5019033;28;87843;-51
2024/03/02 08:34:20;;;;;;;;;;;9.40;90.20;;;;;;5014159;28;87429;-50
2024/03/02 08:36:46;;;;;;;;;;;9.40;90.20;;;;;;5019717;28;88850;-52
2024/03/02 08:39:15;;;;;;;;;;;9.40;90.20;;;;;;5018985;28;86964;-50
2024/03/02 08:41:47;;;;;;;;;;;9.40;90.20;;;;;;5021186;28;87630;-49
2024/03/02 08:44:13;;;;;;;;;;;9.40;90.20;;;;;;5019164;28;86160;-51
2024/03/02 08:46:39;;;;;;;;;;;9.40;90.20;;;;;;5010198;28;87500;-48
2024/03/02 08:49:04;;;;;;;;;;;9.40;90.20;;;;;;5014155;28;87846;-50
2024/03/02 08:51:30;;;;;;;;;;;9.40;90.30;;;;;;5016203;28;87861;-50
2024/03/02 08:56:40;;;;;;;;;;;9.30;90.30;;;;;;5013270;28;87301;-50
2024/03/02 08:59:06;;;;;;;;;;;9.30;90.20;;;;;;5013951;28;87407;-49
2024/03/02 09:01:32;;;;;;;;;;;9.30;90.20;;;;;;5013850;28;87669;-49
2024/03/02 09:03:58;;;;;;;;;;;9.40;90.30;;;;;;5017989;28;86996;-51
2024/03/02 09:06:23;;;;;;;;;;;9.40;90.20;;;;;;5012755;28;88493;-50
2024/03/02 09:08:51;;;;;;;;;;;9.40;90.20;;;;;;5018825;28;86323;-50
2024/03/02 09:11:17;;;;;;;;;;;9.40;90.50;;;;;;5018107;28;87478;-50
2024/03/02 09:13:44;;;;;;;;;;;9.30;90.20;;;;;;5010285;28;89877;-50
2024/03/02 09:16:11;;;;;;;;;;;9.30;90.20;;;;;;5015944;28;88387;-49
2024/03/02 09:18:36;;;;;;;;;;;9.30;90.20;;;;;;5016675;28;87585;-49
2024/03/02 09:21:02;;;;;;;;;;;9.40;90.20;;;;;;5014487;28;87491;-50
2024/03/02 09:23:27;;;;;;;;;;;9.30;90.20;;;;;;5014199;28;87029;-50
2024/03/02 09:25:53;;;;;;;;;;;9.40;90.20;;;;;;5015533;28;87867;-50
2024/03/02 09:28:18;;;;;;;;;;;9.40;90.20;;;;;;5016024;28;87116;-52
2024/03/02 09:30:44;;;;;;;;;;;9.30;90.40;;;;;;5013247;28;87011;-50
2024/03/02 09:33:10;;;;;;;;;;;9.30;90.20;;;;;;5015298;28;86593;-50
2024/03/02 09:35:35;;;;;;;;;;;9.40;90.20;;;;;;5015428;28;87128;-49
2024/03/02 09:38:01;;;;;;;;;;;9.30;90.20;;;;;;5014343;28;87590;-50
2024/03/02 09:40:27;;;;;;;;;;;9.30;90.20;;;;;;5019952;28;88767;-50
2024/03/02 09:42:54;;;;;;;;;;;9.40;90.20;;;;;;5016913;28;87136;-49
2024/03/02 09:45:22;;;;;;;;;;;9.30;90.20;;;;;;5015839;28;88027;-49
2024/03/02 09:47:48;;;;;;;;;;;9.30;90.20;;;;;;5016481;28;87763;-50
2024/03/02 09:50:14;;;;;;;;;;;9.30;90.20;;;;;;5017337;28;86951;-50
2024/03/02 09:52:40;;;;;;;;;;;9.40;90.20;;;;;;5013786;28;88620;-51
2024/03/02 09:55:05;;;;;;;;;;;9.30;90.20;;;;;;5013701;28;87014;-50
2024/03/02 09:57:31;;;;;;;;;;;9.40;90.10;;;;;;5015718;28;86937;-56
2024/03/02 09:59:57;;;;;;;;;;;9.30;90.20;;;;;;5017895;28;88742;-49
2024/03/02 10:02:22;;;;;;;;;;;9.30;90.20;;;;;;5013537;28;87066;-54
2024/03/02 10:04:49;;;;;;;;;;;9.30;90.20;;;;;;5012556;28;87912;-50
2024/03/02 10:07:15;;;;;;;;;;;9.30;90.20;;;;;;5020884;28;88670;-49
2024/03/02 10:12:26;;;;;;;;;;;9.30;90.20;;;;;;5014924;28;87128;-49
2024/03/02 10:15:02;;;;;;;;;;;9.30;90.20;;;;;;5014037;28;87640;-50
2024/03/02 10:17:31;;;;;;;;;;;9.30;90.20;;;;;;5015276;28;87027;-53
2024/03/02 10:19:56;;;;;;;;;;;9.30;90.30;;;;;;5013851;28;88097;-54
2024/03/02 10:22:23;;;;;;;;;;;9.30;90.20;;;;;;5012038;28;86756;-52
2024/03/02 10:24:49;;;;;;;;;;;9.30;90.30;;;;;;5015016;28;87926;-52
2024/03/02 10:27:15;;;;;;;;;;;9.30;90.30;;;;;;5013665;28;87353;-51
2024/03/02 10:29:41;;;;;;;;;;;9.30;90.30;;;;;;5016033;28;88033;-51
2024/03/02 10:32:11;;;;;;;;;;;9.30;90.20;;;;;;5020888;28;88899;-51
2024/03/02 10:34:37;;;;;;;;;;;9.30;90.30;;;;;;5010882;28;87105;-50
2024/03/02 10:37:03;;;;;;;;;;;9.30;90.30;;;;;;5014598;28;87005;-50
2024/03/02 10:39:29;;;;;;;;;;;9.30;90.30;;;;;;5015235;28;87514;-50
2024/03/02 10:41:55;;;;;;;;;;;9.30;90.30;;;;;;5013255;28;87311;-51
2024/03/02 10:44:22;;;;;;;;;;;9.30;90.30;;;;;;5013371;28;86984;-50
2024/03/02 10:46:49;;;;;;;;;;;9.30;90.30;;;;;;5012335;28;86960;-52
2024/03/02 10:49:14;;;;;;;;;;;9.30;90.30;;;;;;5011443;28;87802;-50
2024/03/02 10:51:40;;;;;;;;;;;9.30;90.30;;;;;;5011711;28;87259;-51
2024/03/02 10:54:08;;;;;;;;;;;9.30;90.30;;;;;;5016104;28;87995;-50
2024/03/02 10:56:40;;;;;;;;;;;9.30;90.30;;;;;;5015641;28;87054;-51
2024/03/02 10:59:12;;;;;;;;;;;9.30;90.30;;;;;;5014463;28;87677;-51
2024/03/02 11:01:38;;;;;;;;;;;9.30;90.30;;;;;;5011960;28;86969;-50
2024/03/02 11:04:07;;;;;;;;;;;9.30;90.30;;;;;;5013252;28;87091;-51
2024/03/02 11:06:34;;;;;;;;;;;9.30;90.20;;;;;;5016880;28;87484;-48
2024/03/02 11:09:03;;;;;;;;;;;9.30;90.20;;;;;;5014730;28;87537;-50
2024/03/02 11:11:30;;;;;;;;;;;9.30;90.20;;;;;;5008842;28;87795;-50
2024/03/02 11:13:57;;;;;;;;;;;9.30;90.20;;;;;;5016898;28;88846;-51
2024/03/02 11:16:34;;;;;;;;;;;9.30;90.10;;;;;;5013053;28;88773;-51
2024/03/02 11:19:03;;;;;;;;;;;9.30;90.00;;;;;;5009129;28;89399;-50
2024/03/02 11:21:28;;;;;;;;;;;9.40;90.10;;;;;;5011356;28;87796;-50
2024/03/02 11:23:55;;;;;;;;;;;9.30;90.10;;;;;;5017010;28;87409;-50
2024/03/02 11:26:21;;;;;;;;;;;9.40;90.10;;;;;;5015696;28;88582;-53
2024/03/02 11:28:47;;;;;;;;;;;9.30;90.00;;;;;;5014713;28;88732;-50
2024/03/02 11:31:12;;;;;;;;;;;9.40;90.10;;;;;;5010585;28;87123;-51
2024/03/02 11:33:38;;;;;;;;;;;9.30;90.10;;;;;;5013152;28;87510;-51
2024/03/02 11:36:06;;;;;;;;;;;9.30;90.10;;;;;;5014618;28;86358;-49
2024/03/02 11:38:33;;;;;;;;;;;9.40;90.10;;;;;;5009936;28;89120;-48
2024/03/02 11:41:08;;;;;;;;;;;9.30;90.20;;;;;;5011604;28;87661;-51
2024/03/02 11:43:37;;;;;;;;;;;9.30;90.10;;;;;;5016216;28;88025;-50
2024/03/02 11:46:08;;;;;;;;;;;9.30;90.20;;;;;;5009277;28;88789;-49
2024/03/02 11:48:39;;;;;;;;;;;9.40;90.20;;;;;;5011837;28;87055;-51
2024/03/02 11:51:04;;;;;;;;;;;9.30;90.20;;;;;;5012324;28;87261;-50
2024/03/02 11:53:31;;;;;;;;;;;9.30;90.20;;;;;;5014311;28;87737;-50
2024/03/02 11:55:58;;;;;;;;;;;9.30;90.10;;;;;;5010860;28;87210;-49
2024/03/02 11:58:24;;;;;;;;;;;9.30;90.20;;;;;;5011584;28;87109;-50
2024/03/02 12:00:53;;;;;;;;;;;9.30;90.20;;;;;;5017078;28;86223;-51
2024/03/02 12:03:20;;;;;;;;;;;9.30;90.20;;;;;;5011846;28;87559;-50
2024/03/02 12:05:48;;;;;;;;;;;9.40;90.20;;;;;;5011784;28;88558;-49
2024/03/02 12:08:13;;;;;;;;;;;9.40;90.30;;;;;;5011755;28;88048;-50
2024/03/02 12:10:39;;;;;;;;;;;9.30;90.30;;;;;;5014119;28;87811;-48
2024/03/02 12:13:12;;;;;;;;;;;9.40;90.20;;;;;;5014139;28;87609;-50
2024/03/02 12:15:38;;;;;;;;;;;9.30;90.20;;;;;;5009923;28;87237;-50
2024/03/02 12:18:04;;;;;;;;;;;9.40;90.20;;;;;;5010737;28;87768;-51
2024/03/02 12:20:31;;;;;;;;;;;9.40;90.20;;;;;;5014669;28;88389;-51
2024/03/02 12:22:58;;;;;;;;;;;9.40;90.20;;;;;;5012934;28;88400;-48
2024/03/02 12:25:24;;;;;;;;;;;9.40;90.20;;;;;;5012812;28;86744;-52
2024/03/02 12:27:54;;;;;;;;;;;9.40;90.10;;;;;;5015050;28;87159;-51
2024/03/02 12:30:20;;;;;;;;;;;9.40;90.10;;;;;;5016878;28;86983;-49
2024/03/02 12:32:46;;;;;;;;;;;9.40;90.30;;;;;;5013668;28;90740;-51
2024/03/02 12:35:14;;;;;;;;;;;9.40;90.20;;;;;;5014074;28;87125;-50
2024/03/02 12:37:50;;;;;;;;;;;9.40;90.30;;;;;;5012997;28;87885;-49
2024/03/02 12:40:18;;;;;;;;;;;9.40;90.30;;;;;;5014064;28;88939;-50
2024/03/02 12:42:44;;;;;;;;;;;9.40;90.30;;;;;;5014912;28;87614;-50
2024/03/02 12:45:10;;;;;;;;;;;9.40;90.30;;;;;;5008424;28;87400;-48
2024/03/02 12:47:35;;;;;;;;;;;9.40;90.40;;;;;;5012364;28;86984;-51
2024/03/02 12:50:01;;;;;;;;;;;9.40;90.30;;;;;;5012516;28;86867;-50
2024/03/02 12:52:27;;;;;;;;;;;9.40;90.30;;;;;;5015328;28;87781;-50
2024/03/02 12:54:57;;;;;;;;;;;9.40;90.30;;;;;;5014339;28;87815;-51
2024/03/02 12:57:24;;;;;;;;;;;9.40;90.60;;;;;;5007363;28;87995;-51
2024/03/02 12:59:50;;;;;;;;;;;9.40;90.30;;;;;;5011843;28;88113;-51
2024/03/02 13:02:19;;;;;;;;;;;9.40;90.40;;;;;;5020239;28;88579;-52
2024/03/02 13:04:44;;;;;;;;;;;9.40;90.40;;;;;;5015965;28;87869;-49
2024/03/02 13:07:10;;;;;;;;;;;9.40;90.40;;;;;;5014329;28;86896;-50
2024/03/02 13:09:37;;;;;;;;;;;9.40;90.50;;;;;;5018017;28;86989;-51
2024/03/02 13:12:04;;;;;;;;;;;9.40;90.50;;;;;;5016519;28;86909;-52
2024/03/02 13:14:32;;;;;;;;;;;9.40;90.50;;;;;;5013122;28;87276;-51
2024/03/02 13:16:57;;;;;;;;;;;9.40;90.50;;;;;;5015844;28;87813;-50
2024/03/02 13:19:23;;;;;;;;;;;9.40;90.50;;;;;;5015041;28;88387;-50
2024/03/02 13:21:50;;;;;;;;;;;9.40;90.40;;;;;;5011893;28;87969;-50
2024/03/02 13:24:16;;;;;;;;;;;9.40;90.40;;;;;;5018788;28;88036;-49
2024/03/02 13:26:41;;;;;;;;;;;9.40;90.50;;;;;;5017445;28;87009;-51
2024/03/02 13:29:07;;;;;;;;;;;9.40;90.50;;;;;;5015121;28;87272;-49
2024/03/02 13:31:33;;;;;;;;;;;9.50;90.50;;;;;;5012567;28;88567;-51
2024/03/02 13:33:58;;;;;;;;;;;9.40;90.80;;;;;;5013162;28;87176;-50
2024/03/02 13:36:24;;;;;;;;;;;9.40;90.60;;;;;;5017614;28;87696;-49
2024/03/02 13:38:50;;;;;;;;;;;9.40;90.60;;;;;;5012698;28;87475;-50
2024/03/02 13:41:15;;;;;;;;;;;9.40;90.50;;;;;;5013500;28;86993;-49
2024/03/02 13:43:41;;;;;;;;;;;9.40;90.60;;;;;;5014175;28;87083;-48
2024/03/02 13:46:07;;;;;;;;;;;9.40;90.50;;;;;;5019711;28;89531;-51
2024/03/02 13:48:32;;;;;;;;;;;9.40;90.60;;;;;;5017938;28;88755;-50
2024/03/02 13:50:58;;;;;;;;;;;9.40;90.60;;;;;;5011884;28;87531;-48
2024/03/02 13:53:23;;;;;;;;;;;9.40;90.60;;;;;;5015948;28;87619;-51
2024/03/02 13:55:49;;;;;;;;;;;9.50;90.50;;;;;;5019034;28;87446;-51
2024/03/02 13:58:15;;;;;;;;;;;9.50;90.50;;;;;;5020650;28;87430;-51
2024/03/02 14:00:40;;;;;;;;;;;9.50;90.50;;;;;;5019703;28;87044;-52
2024/03/02 14:03:06;;;;;;;;;;;9.50;90.50;;;;;;5011381;28;87326;-52
2024/03/02 14:05:32;;;;;;;;;;;9.50;90.40;;;;;;5015039;28;87438;-50
2024/03/02 14:07:58;;;;;;;;;;;9.50;90.50;;;;;;5017129;28;87069;-53
2024/03/02 14:10:24;;;;;;;;;;;9.50;90.40;;;;;;5011680;28;88404;-49
2024/03/02 14:12:50;;;;;;;;;;;9.50;90.40;;;;;;5011723;28;87171;-50
2024/03/02 14:15:15;;;;;;;;;;;9.50;90.40;;;;;;5017467;28;87411;-50
2024/03/02 14:17:41;;;;;;;;;;;9.50;90.30;;;;;;5015010;28;86993;-50
2024/03/02 14:20:06;;;;;;;;;;;9.50;90.20;;;;;;5015350;28;87121;-51
2024/03/02 14:22:33;;;;;;;;;;;9.50;90.30;;;;;;5013354;28;87021;-50
2024/03/02 14:24:59;;;;;;;;;;;9.50;90.30;;;;;;5013151;28;87991;-49
2024/03/02 14:27:25;;;;;;;;;;;9.50;90.30;;;;;;5012519;28;86915;-52
2024/03/02 14:29:51;;;;;;;;;;;9.50;90.40;;;;;;5014081;28;87500;-50
2024/03/02 14:32:16;;;;;;;;;;;9.50;90.50;;;;;;5011969;28;87175;-53
2024/03/02 14:34:42;;;;;;;;;;;9.50;90.50;;;;;;5013698;28;87890;-50